createdAt,value
2018-11-29T00:00:37.182Z,98918.23
2018-11-29T00:03:07.107Z,98922.69
2018-11-29T00:05:36.523Z,98930.09
2018-11-29T00:08:05.718Z,98932.75
2018-11-29T00:10:34.980Z,98936.19
2018-11-29T00:13:04.180Z,98941.80
2018-11-29T00:15:33.259Z,98957.62
2018-11-29T00:18:02.576Z,98953.73
2018-11-29T00:20:31.804Z,98957.67
2018-11-29T00:23:00.951Z,98971.13
2018-11-29T00:25:30.151Z,98972.89
2018-11-29T00:27:59.343Z,98974.30
2018-11-29T00:30:28.548Z,98983.34
2018-11-29T00:32:57.883Z,98984.09
2018-11-29T00:35:27.017Z,98988.33
2018-11-29T00:37:56.184Z,98992.33
2018-11-29T00:40:25.605Z,99003.50
2018-11-29T00:42:54.784Z,99002.64
2018-11-29T00:45:24.699Z,99003.45
2018-11-29T00:47:54.122Z,99009.38
2018-11-29T00:50:23.513Z,99008.94
2018-11-29T00:52:52.732Z,99015.09
2018-11-29T00:55:23.736Z,99020.26
2018-11-29T00:57:53.173Z,99015.64
2018-11-29T01:00:24.035Z,99018.78
2018-11-29T01:02:53.274Z,99023.52
2018-11-29T01:05:22.523Z,99025.67
2018-11-29T01:07:51.859Z,99033.09
2018-11-29T01:10:20.910Z,99032.05
2018-11-29T01:12:50.734Z,99035.25
2018-11-29T01:15:20.917Z,99033.44
2018-11-29T01:17:50.504Z,99031.78
2018-11-29T01:20:21.626Z,99032.27
2018-11-29T01:22:50.861Z,99034.77
2018-11-29T01:25:19.951Z,99033.52
2018-11-29T01:27:49.983Z,99036.70
2018-11-29T01:30:20.727Z,99035.55
2018-11-29T01:32:50.071Z,99038.95
2018-11-29T01:35:20.123Z,99045.23
2018-11-29T01:37:49.722Z,99046.89
2018-11-29T01:40:20.403Z,99042.73
2018-11-29T01:42:59.267Z,99045.84
2018-11-29T01:45:28.554Z,99059.14
2018-11-29T01:47:57.558Z,99056.47
2018-11-29T01:50:26.848Z,99055.20
2018-11-29T01:52:56.159Z,99054.00
2018-11-29T01:55:25.359Z,99054.47
2018-11-29T01:57:54.546Z,99058.82
2018-11-29T02:00:23.851Z,99055.73
2018-11-29T02:02:53.407Z,99054.34
2018-11-29T02:05:22.820Z,99057.91
2018-11-29T02:07:51.813Z,99058.90
2018-11-29T02:10:26.136Z,99064.73
2018-11-29T02:12:55.528Z,99068.81
2018-11-29T02:15:24.466Z,99065.55
2018-11-29T02:17:53.313Z,99065.53
2018-11-29T02:20:22.611Z,99070.22
2018-11-29T02:22:51.899Z,99069.86
2018-11-29T02:25:21.248Z,99068.89
2018-11-29T02:27:50.347Z,99063.47
2018-11-29T02:30:22.273Z,99065.92
2018-11-29T02:32:51.614Z,99073.98
2018-11-29T02:35:20.834Z,99074.51
2018-11-29T02:37:49.866Z,99079.85
2018-11-29T02:40:19.259Z,99083.56
2018-11-29T02:42:49.949Z,99086.33
2018-11-29T02:45:23.842Z,99088.80
2018-11-29T02:47:53.124Z,99089.73
2018-11-29T02:50:22.095Z,99093.86
2018-11-29T02:52:51.436Z,99098.14
2018-11-29T02:55:20.410Z,99098.84
2018-11-29T02:57:49.535Z,99107.14
2018-11-29T03:00:19.770Z,99108.08
2018-11-29T03:02:49.845Z,99115.23
2018-11-29T03:05:19.359Z,99119.50
2018-11-29T03:07:48.694Z,99123.28
2018-11-29T03:10:22.835Z,99128.31
2018-11-29T03:12:51.748Z,99132.67
2018-11-29T03:15:20.700Z,99134.29
2018-11-29T03:17:49.773Z,99139.84
2018-11-29T03:20:18.946Z,99140.87
2018-11-29T03:22:48.235Z,99140.06
2018-11-29T03:25:17.678Z,99141.94
2018-11-29T03:27:47.039Z,99148.60
2018-11-29T03:30:17.588Z,99145.77
2018-11-29T03:32:46.692Z,99149.47
2018-11-29T03:35:15.998Z,99150.64
2018-11-29T03:37:45.228Z,99150.64
2018-11-29T03:40:16.163Z,99152.84
2018-11-29T03:42:45.758Z,99154.69
2018-11-29T03:45:15.863Z,99153.13
2018-11-29T03:47:45.507Z,99158.00
2018-11-29T03:50:18.435Z,99160.88
2018-11-29T03:52:47.948Z,99163.16
2018-11-29T03:55:17.212Z,99168.75
2018-11-29T03:57:46.523Z,99169.74
2018-11-29T04:00:16.762Z,99170.52
2018-11-29T04:02:47.647Z,99172.67
2018-11-29T04:05:17.087Z,99179.53
2018-11-29T04:07:46.294Z,99184.03
2018-11-29T04:10:17.124Z,99189.05
2018-11-29T04:12:46.421Z,99189.64
2018-11-29T04:15:16.303Z,99194.22
2018-11-29T04:17:45.784Z,99194.48
2018-11-29T04:20:16.050Z,99198.92
2018-11-29T04:22:45.273Z,99199.84
2018-11-29T04:25:15.269Z,99205.77
2018-11-29T04:27:44.486Z,99204.41
2018-11-29T04:30:15.309Z,99208.39
2018-11-29T04:32:44.804Z,99207.34
2018-11-29T04:35:14.418Z,99212.11
2018-11-29T04:37:43.365Z,99209.37
2018-11-29T04:40:13.615Z,99217.47
2018-11-29T04:42:42.927Z,99218.95
2018-11-29T04:45:13.103Z,99223.37
2018-11-29T04:47:42.036Z,99223.55
2018-11-29T04:50:11.211Z,99224.95
2018-11-29T04:52:40.375Z,99226.77
2018-11-29T04:55:10.640Z,99232.39
2018-11-29T04:57:39.614Z,99241.98
2018-11-29T05:00:12.708Z,99240.66
2018-11-29T05:02:42.048Z,99250.18
2018-11-29T05:05:11.626Z,99253.50
2018-11-29T05:07:40.621Z,99255.70
2018-11-29T05:10:11.159Z,99268.73
2018-11-29T05:12:40.447Z,99268.70
2018-11-29T05:15:10.882Z,99270.88
2018-11-29T05:17:39.726Z,99272.57
2018-11-29T05:20:09.316Z,99280.23
2018-11-29T05:22:38.676Z,99282.07
2018-11-29T05:25:08.992Z,99287.58
2018-11-29T05:27:38.443Z,99290.51
2018-11-29T05:30:11.040Z,99294.97
2018-11-29T05:32:40.396Z,99298.88
2018-11-29T05:35:10.839Z,99301.77
2018-11-29T05:37:40.116Z,99308.54
2018-11-29T05:40:11.003Z,99306.08
2018-11-29T05:42:40.343Z,99309.21
2018-11-29T05:45:10.274Z,99314.01
2018-11-29T05:47:39.538Z,99318.80
2018-11-29T05:50:10.594Z,99325.20
2018-11-29T05:52:40.010Z,99326.59
2018-11-29T05:55:10.715Z,99326.63
2018-11-29T05:57:40.027Z,99329.25
2018-11-29T06:00:11.835Z,99331.97
2018-11-29T06:02:40.682Z,99338.95
2018-11-29T06:05:10.876Z,99335.82
2018-11-29T06:07:40.063Z,99340.66
2018-11-29T06:10:09.241Z,99343.08
2018-11-29T06:12:38.293Z,99346.01
2018-11-29T06:15:08.892Z,99345.02
2018-11-29T06:17:38.171Z,99351.08
2018-11-29T06:20:09.812Z,99357.23
2018-11-29T06:22:39.128Z,99353.63
2018-11-29T06:25:08.437Z,99360.09
2018-11-29T06:27:37.771Z,99365.34
2018-11-29T06:30:19.686Z,99370.33
2018-11-29T06:32:49.247Z,99381.09
2018-11-29T06:35:18.475Z,99377.84
2018-11-29T06:37:48.182Z,99378.11
2018-11-29T06:40:18.009Z,99379.88
2018-11-29T06:42:47.215Z,99386.28
2018-11-29T06:45:19.477Z,99390.23
2018-11-29T06:47:49.371Z,99389.44
2018-11-29T06:50:18.605Z,99394.75
2018-11-29T06:52:48.780Z,99395.80
2018-11-29T06:55:20.843Z,99408.03
2018-11-29T06:57:50.260Z,99408.81
2018-11-29T07:00:36.518Z,99413.72
2018-11-29T07:03:06.227Z,99418.52
2018-11-29T07:05:35.421Z,99424.86
2018-11-29T07:08:04.700Z,99425.48
2018-11-29T07:10:34.487Z,99418.93
2018-11-29T07:13:04.872Z,99430.81
2018-11-29T07:15:33.855Z,99432.18
2018-11-29T07:18:03.178Z,99434.42
2018-11-29T07:20:32.367Z,99440.48
2018-11-29T07:23:01.380Z,99439.59
2018-11-29T07:25:30.668Z,99445.96
2018-11-29T07:27:59.910Z,99449.84
2018-11-29T07:30:29.212Z,99451.14
2018-11-29T07:32:58.188Z,99448.66
2018-11-29T07:35:27.518Z,99453.53
2018-11-29T07:37:56.687Z,99447.84
2018-11-29T07:40:26.024Z,99455.02
2018-11-29T07:42:55.711Z,99456.61
2018-11-29T07:45:25.131Z,99455.70
2018-11-29T07:47:54.402Z,99450.74
2018-11-29T07:50:23.997Z,99456.91
2018-11-29T07:52:53.297Z,99462.91
2018-11-29T07:55:23.039Z,99456.12
2018-11-29T07:57:53.325Z,99460.06
2018-11-29T08:00:22.506Z,99456.91
2018-11-29T08:02:51.806Z,99464.02
2018-11-29T08:05:21.103Z,99463.80
2018-11-29T08:07:50.455Z,99465.66
2018-11-29T08:10:20.538Z,99472.73
2018-11-29T08:12:49.715Z,99471.12
2018-11-29T08:15:20.047Z,99477.70
2018-11-29T08:17:49.346Z,99478.45
2018-11-29T08:20:19.641Z,99481.36
2018-11-29T08:22:48.925Z,99477.70
2018-11-29T08:25:18.270Z,99486.10
2018-11-29T08:27:47.117Z,99482.34
2018-11-29T08:30:16.851Z,99486.47
2018-11-29T08:32:46.007Z,99484.79
2018-11-29T08:35:15.747Z,99481.47
2018-11-29T08:37:46.565Z,99482.42
2018-11-29T08:40:17.155Z,99475.97
2018-11-29T08:42:46.540Z,99477.31
2018-11-29T08:45:15.687Z,99483.84
2018-11-29T08:47:44.859Z,99477.60
2018-11-29T08:50:14.639Z,99476.50
2018-11-29T08:52:45.418Z,99474.09
2018-11-29T08:55:17.395Z,99474.00
2018-11-29T08:57:47.155Z,99471.84
2018-11-29T09:00:18.003Z,99469.67
2018-11-29T09:02:47.051Z,99473.47
2018-11-29T09:05:16.372Z,99471.30
2018-11-29T09:07:46.531Z,99475.80
2018-11-29T09:10:17.751Z,99469.50
2018-11-29T09:12:46.935Z,99465.40
2018-11-29T09:15:16.888Z,99462.63
2018-11-29T09:17:45.919Z,99461.02
2018-11-29T09:20:19.144Z,99467.05
2018-11-29T09:22:48.051Z,99468.37
2018-11-29T09:25:18.051Z,99470.24
2018-11-29T09:27:47.031Z,99467.58
2018-11-29T09:30:19.040Z,99462.41
2018-11-29T09:32:49.164Z,99460.91
2018-11-29T09:35:18.347Z,99462.25
2018-11-29T09:37:47.644Z,99459.27
2018-11-29T09:40:18.243Z,99456.11
2018-11-29T09:42:47.645Z,99457.11
2018-11-29T09:45:19.669Z,99458.09
2018-11-29T09:47:49.974Z,99455.92
2018-11-29T09:50:19.119Z,99464.45
2018-11-29T09:52:48.119Z,99459.73
2018-11-29T09:55:18.129Z,99457.77
2018-11-29T09:57:47.847Z,99446.14
2018-11-29T10:00:27.201Z,99445.77
2018-11-29T10:02:52.030Z,99448.77
2018-11-29T10:05:21.285Z,99444.00
2018-11-29T10:07:50.664Z,99440.48
2018-11-29T10:10:19.915Z,99441.65
2018-11-29T10:12:49.394Z,99440.19
2018-11-29T10:15:18.549Z,99439.37
2018-11-29T10:17:47.715Z,99438.88
2018-11-29T10:20:16.791Z,99436.06
2018-11-29T10:22:46.046Z,99434.02
2018-11-29T10:25:15.715Z,99430.58
2018-11-29T10:27:50.899Z,99427.20
2018-11-29T10:30:25.553Z,99430.85
2018-11-29T10:32:54.963Z,99426.73
2018-11-29T10:35:23.887Z,99434.39
2018-11-29T10:37:53.209Z,99430.13
2018-11-29T10:40:22.559Z,99428.33
2018-11-29T10:42:52.028Z,99420.46
2018-11-29T10:45:21.611Z,99421.84
2018-11-29T10:47:52.782Z,99421.25
2018-11-29T10:50:21.283Z,99421.84
2018-11-29T10:52:50.656Z,99421.66
2018-11-29T10:55:20.315Z,99415.05
2018-11-29T10:57:49.555Z,99416.77
2018-11-29T11:00:28.497Z,99416.01
2018-11-29T11:03:04.595Z,99415.56
2018-11-29T11:05:33.756Z,99411.91
2018-11-29T11:08:08.026Z,99414.16
2018-11-29T11:10:32.314Z,99416.24
2018-11-29T11:13:01.539Z,99412.06
2018-11-29T11:15:30.747Z,99411.94
2018-11-29T11:17:59.778Z,99406.61
2018-11-29T11:20:28.896Z,99403.28
2018-11-29T11:22:58.067Z,99407.26
2018-11-29T11:25:27.117Z,99413.21
2018-11-29T11:27:56.342Z,99414.91
2018-11-29T11:30:25.364Z,99411.92
2018-11-29T11:32:54.250Z,99417.03
2018-11-29T11:35:23.388Z,99407.94
2018-11-29T11:37:52.576Z,99413.53
2018-11-29T11:40:21.599Z,99406.93
2018-11-29T11:42:50.759Z,99409.40
2018-11-29T11:45:20.723Z,99404.41
2018-11-29T11:47:49.756Z,99400.14
2018-11-29T11:50:23.667Z,99404.41
2018-11-29T11:52:53.278Z,99398.72
2018-11-29T11:55:22.312Z,99399.32
2018-11-29T11:57:51.613Z,99392.15
2018-11-29T12:00:23.524Z,99393.66
2018-11-29T12:03:09.951Z,99393.45
2018-11-29T12:05:39.250Z,99393.64
2018-11-29T12:08:08.660Z,99386.08
2018-11-29T12:10:38.150Z,99386.11
2018-11-29T12:13:08.162Z,99384.64
2018-11-29T12:15:37.979Z,99382.49
2018-11-29T12:18:08.918Z,99381.73
2018-11-29T12:20:37.954Z,99375.57
2018-11-29T12:23:07.878Z,99379.05
2018-11-29T12:25:37.066Z,99383.12
2018-11-29T12:28:06.059Z,99378.05
2018-11-29T12:30:36.896Z,99379.81
2018-11-29T12:33:07.381Z,99380.50
2018-11-29T12:35:36.673Z,99380.50
2018-11-29T12:38:05.995Z,99385.94
2018-11-29T12:40:35.384Z,99384.05
2018-11-29T12:43:04.659Z,99381.39
2018-11-29T12:45:33.814Z,99373.21
2018-11-29T12:48:03.175Z,99373.55
2018-11-29T12:50:32.414Z,99375.70
2018-11-29T12:53:01.587Z,99375.82
2018-11-29T12:55:30.933Z,99373.92
2018-11-29T12:58:05.236Z,99373.69
2018-11-29T13:00:29.585Z,99379.96
2018-11-29T13:02:59.651Z,99377.55
2018-11-29T13:05:29.544Z,99378.42
2018-11-29T13:07:58.807Z,99377.44
2018-11-29T13:10:28.447Z,99377.55
2018-11-29T13:12:57.367Z,99376.16
2018-11-29T13:15:32.714Z,99376.63
2018-11-29T13:18:04.031Z,99374.26
2018-11-29T13:20:33.327Z,99374.05
2018-11-29T13:23:02.531Z,99384.33
2018-11-29T13:25:31.466Z,99379.98
2018-11-29T13:28:00.886Z,99377.20
2018-11-29T13:30:30.087Z,99374.91
2018-11-29T13:32:59.325Z,99376.61
2018-11-29T13:35:32.543Z,99371.77
2018-11-29T13:38:07.596Z,99371.34
2018-11-29T13:40:36.784Z,99372.56
2018-11-29T13:43:05.811Z,99372.45
2018-11-29T13:45:35.244Z,99375.05
2018-11-29T13:48:04.452Z,99373.91
2018-11-29T13:50:33.740Z,99383.68
2018-11-29T13:53:03.093Z,99385.06
2018-11-29T13:55:32.376Z,99382.95
2018-11-29T13:58:01.689Z,99387.70
2018-11-29T14:00:31.077Z,99386.35
2018-11-29T14:03:06.508Z,99386.47
2018-11-29T14:05:36.235Z,99384.38
2018-11-29T14:08:06.084Z,99379.64
2018-11-29T14:10:35.344Z,99384.53
2018-11-29T14:13:04.579Z,99381.11
2018-11-29T14:15:33.650Z,99377.22
2018-11-29T14:18:03.018Z,99384.41
2018-11-29T14:20:35.410Z,99378.91
2018-11-29T14:23:01.636Z,99385.44
2018-11-29T14:25:30.832Z,99377.11
2018-11-29T14:27:59.840Z,99376.87
2018-11-29T14:30:30.115Z,99375.72
2018-11-29T14:33:00.489Z,99371.34
2018-11-29T14:35:29.815Z,99376.77
2018-11-29T14:37:59.173Z,99375.67
2018-11-29T14:40:29.860Z,99380.85
2018-11-29T14:42:59.112Z,99380.09
2018-11-29T14:45:28.620Z,99381.80
2018-11-29T14:47:57.886Z,99378.23
2018-11-29T14:50:34.870Z,99380.62
2018-11-29T14:53:04.112Z,99386.50
2018-11-29T14:55:33.296Z,99380.73
2018-11-29T14:58:02.225Z,99389.88
2018-11-29T15:00:31.364Z,99397.75
2018-11-29T15:03:01.568Z,99391.42
2018-11-29T15:05:32.015Z,99397.81
2018-11-29T15:08:01.117Z,99396.06
2018-11-29T15:10:30.357Z,99403.47
2018-11-29T15:12:59.703Z,99402.89
2018-11-29T15:15:28.579Z,99410.11
2018-11-29T15:17:57.679Z,99410.76
2018-11-29T15:20:29.652Z,99403.64
2018-11-29T15:22:58.733Z,99409.73
2018-11-29T15:25:27.852Z,99412.46
2018-11-29T15:27:56.844Z,99412.14
2018-11-29T15:30:26.035Z,99415.95
2018-11-29T15:32:54.884Z,99414.53
2018-11-29T15:35:24.062Z,99425.61
2018-11-29T15:37:53.308Z,99422.81
2018-11-29T15:40:22.560Z,99427.61
2018-11-29T15:42:51.825Z,99423.08
2018-11-29T15:45:22.119Z,99430.58
2018-11-29T15:47:51.432Z,99435.00
2018-11-29T15:50:20.403Z,99436.40
2018-11-29T15:52:49.624Z,99435.61
2018-11-29T15:55:19.763Z,99434.20
2018-11-29T15:57:49.658Z,99438.78
2018-11-29T16:00:25.922Z,99442.92
2018-11-29T16:02:55.936Z,99447.78
2018-11-29T16:05:25.015Z,99445.98
2018-11-29T16:07:54.282Z,99453.20
2018-11-29T16:10:24.083Z,99447.19
2018-11-29T16:12:53.404Z,99450.13
2018-11-29T16:15:22.845Z,99447.11
2018-11-29T16:17:52.844Z,99436.49
2018-11-29T16:20:27.636Z,99444.52
2018-11-29T16:22:56.937Z,99447.84
2018-11-29T16:25:26.075Z,99445.22
2018-11-29T16:27:55.372Z,99443.89
2018-11-29T16:30:26.619Z,99444.09
2018-11-29T16:32:56.603Z,99449.38
2018-11-29T16:35:25.749Z,99444.19
2018-11-29T16:37:54.832Z,99444.59
2018-11-29T16:40:23.807Z,99442.80
2018-11-29T16:42:53.065Z,99441.47
2018-11-29T16:45:22.564Z,99444.25
2018-11-29T16:47:51.772Z,99440.38
2018-11-29T16:50:21.887Z,99437.06
2018-11-29T16:52:51.299Z,99438.42
2018-11-29T16:55:20.500Z,99433.17
2018-11-29T16:57:51.447Z,99427.28
2018-11-29T17:00:22.056Z,99425.65
2018-11-29T17:02:51.164Z,99430.94
2018-11-29T17:05:20.516Z,99423.61
2018-11-29T17:07:49.667Z,99427.16
2018-11-29T17:10:20.179Z,99425.66
2018-11-29T17:12:51.706Z,99425.58
2018-11-29T17:15:21.256Z,99420.25
2018-11-29T17:17:50.135Z,99425.53
2018-11-29T17:20:20.419Z,99422.87
2018-11-29T17:22:50.685Z,99427.69
2018-11-29T17:25:19.860Z,99424.39
2018-11-29T17:27:49.667Z,99426.09
2018-11-29T17:30:21.641Z,99431.42
2018-11-29T17:32:55.293Z,99427.95
2018-11-29T17:35:24.602Z,99431.30
2018-11-29T17:37:54.847Z,99427.83
2018-11-29T17:40:24.800Z,99427.27
2018-11-29T17:42:55.029Z,99427.50
2018-11-29T17:45:25.608Z,99423.38
2018-11-29T17:47:56.236Z,99424.38
2018-11-29T17:50:27.716Z,99428.35
2018-11-29T17:52:57.171Z,99420.31
2018-11-29T17:55:26.928Z,99422.44
2018-11-29T17:57:56.221Z,99421.55
2018-11-29T18:00:26.856Z,99414.76
2018-11-29T18:02:56.175Z,99416.41
2018-11-29T18:05:26.903Z,99418.01
2018-11-29T18:07:56.004Z,99415.65
2018-11-29T18:10:27.256Z,99412.94
2018-11-29T18:13:02.972Z,99414.63
2018-11-29T18:15:33.742Z,99415.34
2018-11-29T18:18:03.890Z,99406.84
2018-11-29T18:20:33.375Z,99419.38
2018-11-29T18:23:02.631Z,99411.24
2018-11-29T18:25:32.759Z,99416.36
2018-11-29T18:28:01.907Z,99418.45
2018-11-29T18:30:31.187Z,99425.11
2018-11-29T18:33:00.435Z,99414.53
2018-11-29T18:35:29.748Z,99417.88
2018-11-29T18:37:59.102Z,99416.18
2018-11-29T18:40:27.968Z,99420.76
2018-11-29T18:42:59.223Z,99419.65
2018-11-29T18:45:28.537Z,99422.53
2018-11-29T18:47:57.913Z,99417.14
2018-11-29T18:50:27.447Z,99424.39
2018-11-29T18:52:56.567Z,99418.90
2018-11-29T18:55:26.660Z,99424.41
2018-11-29T18:57:57.083Z,99432.15
2018-11-29T19:00:31.480Z,99431.42
2018-11-29T19:03:00.520Z,99429.77
2018-11-29T19:05:29.787Z,99428.92
2018-11-29T19:07:59.030Z,99433.12
2018-11-29T19:10:28.165Z,99433.52
2018-11-29T19:13:11.823Z,99433.89
2018-11-29T19:15:41.219Z,99432.06
2018-11-29T19:18:11.041Z,99425.59
2018-11-29T19:20:40.033Z,99425.39
2018-11-29T19:23:09.105Z,99423.20
2018-11-29T19:25:38.511Z,99429.52
2018-11-29T19:28:08.658Z,99428.35
2018-11-29T19:30:38.238Z,99430.20
2018-11-29T19:33:24.644Z,99428.70
2018-11-29T19:35:54.999Z,99431.86
2018-11-29T19:38:24.652Z,99423.71
2018-11-29T19:40:54.535Z,99418.66
2018-11-29T19:43:23.642Z,99415.52
2018-11-29T19:45:53.967Z,99419.23
2018-11-29T19:48:24.416Z,99409.83
2018-11-29T19:50:53.835Z,99409.45
2018-11-29T19:53:26.082Z,99419.94
2018-11-29T19:55:56.993Z,99413.90
2018-11-29T19:58:26.065Z,99415.94
2018-11-29T20:00:56.284Z,99415.41
2018-11-29T20:03:25.692Z,99413.27
2018-11-29T20:05:54.638Z,99408.39
2018-11-29T20:08:23.888Z,99407.41
2018-11-29T20:10:53.815Z,99413.58
2018-11-29T20:13:23.128Z,99405.70
2018-11-29T20:15:53.849Z,99405.66
2018-11-29T20:18:22.778Z,99405.58
2018-11-29T20:20:51.702Z,99398.02
2018-11-29T20:23:20.901Z,99394.44
2018-11-29T20:25:50.124Z,99396.36
2018-11-29T20:28:19.452Z,99393.14
2018-11-29T20:30:48.804Z,99394.30
2018-11-29T20:33:18.012Z,99397.72
2018-11-29T20:35:47.005Z,99388.45
2018-11-29T20:38:16.169Z,99392.44
2018-11-29T20:40:46.100Z,99397.83
2018-11-29T20:43:15.620Z,99389.13
2018-11-29T20:45:53.928Z,99393.00
2018-11-29T20:48:25.193Z,99389.23
2018-11-29T20:50:55.187Z,99381.25
2018-11-29T20:53:28.267Z,99372.16
2018-11-29T20:55:57.403Z,99376.08
2018-11-29T20:58:26.555Z,99375.81
2018-11-29T21:00:55.736Z,99372.81
2018-11-29T21:03:24.961Z,99377.30
2018-11-29T21:05:54.139Z,99369.98
2018-11-29T21:08:23.171Z,99368.02
2018-11-29T21:10:52.487Z,99370.91
2018-11-29T21:13:21.612Z,99367.95
2018-11-29T21:15:50.883Z,99376.30
2018-11-29T21:18:20.156Z,99360.47
2018-11-29T21:20:49.392Z,99352.48
2018-11-29T21:23:18.855Z,99354.15
2018-11-29T21:25:47.846Z,99350.34
2018-11-29T21:28:17.148Z,99348.56
2018-11-29T21:30:46.477Z,99351.56
2018-11-29T21:33:15.597Z,99347.34
2018-11-29T21:35:44.727Z,99346.91
2018-11-29T21:38:19.304Z,99356.18
2018-11-29T21:40:50.400Z,99357.28
2018-11-29T21:43:19.484Z,99347.69
2018-11-29T21:45:48.839Z,99352.85
2018-11-29T21:48:18.148Z,99350.41
2018-11-29T21:50:47.243Z,99348.23
2018-11-29T21:53:16.480Z,99349.84
2018-11-29T21:55:45.575Z,99350.25
2018-11-29T21:58:14.486Z,99346.41
2018-11-29T22:00:43.676Z,99351.66
2018-11-29T22:03:13.003Z,99347.56
2018-11-29T22:05:42.155Z,99342.92
2018-11-29T22:08:11.387Z,99339.59
2018-11-29T22:10:40.746Z,99335.27
2018-11-29T22:13:09.927Z,99331.80
2018-11-29T22:15:38.840Z,99332.10
2018-11-29T22:18:26.117Z,99328.51
2018-11-29T22:20:59.416Z,99323.77
2018-11-29T22:23:28.306Z,99323.92
2018-11-29T22:25:58.659Z,99316.80
2018-11-29T22:28:27.880Z,99319.70
2018-11-29T22:30:57.441Z,99315.23
2018-11-29T22:33:26.355Z,99316.68
2018-11-29T22:35:55.498Z,99301.95
2018-11-29T22:38:24.488Z,99298.11
2018-11-29T22:40:53.755Z,99297.66
2018-11-29T22:43:22.968Z,99297.63
2018-11-29T22:45:52.068Z,99285.71
2018-11-29T22:48:21.245Z,99292.61
2018-11-29T22:50:50.368Z,99283.31
2018-11-29T22:53:19.426Z,99280.17
2018-11-29T22:55:48.515Z,99274.23
2018-11-29T22:58:17.680Z,99269.87
2018-11-29T23:00:50.107Z,99268.55
2018-11-29T23:03:19.358Z,99260.81
2018-11-29T23:05:48.596Z,99256.45
2018-11-29T23:08:17.928Z,99259.45
2018-11-29T23:10:46.838Z,99262.03
2018-11-29T23:13:15.792Z,99255.97
2018-11-29T23:15:44.837Z,99253.89
2018-11-29T23:18:14.233Z,99258.17
2018-11-29T23:20:43.475Z,99256.44
2018-11-29T23:23:12.855Z,99253.23
2018-11-29T23:25:42.197Z,99252.94
2018-11-29T23:28:11.451Z,99247.71
2018-11-29T23:30:40.772Z,99246.28
2018-11-29T23:33:09.667Z,99239.52
2018-11-29T23:35:39.128Z,99235.60
2018-11-29T23:38:08.218Z,99230.73
2018-11-29T23:40:37.483Z,99229.47
2018-11-29T23:43:06.805Z,99233.36
2018-11-29T23:45:35.951Z,99231.42
2018-11-29T23:48:04.890Z,99221.42
2018-11-29T23:50:33.988Z,99221.63
2018-11-29T23:53:03.224Z,99227.20
2018-11-29T23:55:32.587Z,99225.95
2018-11-29T23:58:01.539Z,99219.62
